Time;durP1;ratioP1;P1;durP2;ratioP2;P2;SDS_P1;SDS_P2;PMS_P1;PMS_P2;Temp;Humidity;BMP_temperature;BMP_pressure;BME280_temperature;BME280_humidity;BME280_pressure;Samples;Min_cycle;Max_cycle;Signal;HPM_P1;HPM_P2
2022/08/12 00:44:53;;;;;;;2.95;2.22;;;15.50;96.00;;;;;;5032331;28;20021;-79
2022/08/12 00:47:20;;;;;;;4.35;2.40;;;15.50;96.10;;;;;;5015942;28;20032;-79
2022/08/12 00:49:50;;;;;;;9.77;3.00;;;15.50;96.30;;;;;;5014859;28;20093;-79
2022/08/12 00:52:18;;;;;;;5.55;2.47;;;15.40;96.50;;;;;;5013543;28;20508;-79
2022/08/12 00:54:45;;;;;;;4.00;2.25;;;15.30;96.40;;;;;;5015756;28;20040;-79
2022/08/12 00:57:17;;;;;;;5.72;2.50;;;15.20;96.40;;;;;;5014749;28;20108;-79
2022/08/12 00:59:56;;;;;;;4.78;2.63;;;15.20;96.60;;;;;;5015938;28;20026;-79
2022/08/12 01:02:30;;;;;;;3.92;2.70;;;15.10;96.80;;;;;;5031545;28;20044;-79
2022/08/12 01:13:18;;;;;;;3.47;2.38;;;15.10;97.60;;;;;;5030707;28;20071;-79
2022/08/12 01:15:46;;;;;;;3.40;2.53;;;15.00;97.40;;;;;;5032423;28;20022;-79
2022/08/12 01:18:15;;;;;;;3.30;2.40;;;15.00;97.40;;;;;;5015778;28;20092;-79
2022/08/12 01:20:50;;;;;;;3.05;2.30;;;14.90;97.60;;;;;;5033087;28;20025;-79
2022/08/12 01:23:34;;;;;;;4.72;2.67;;;14.80;97.60;;;;;;5031482;28;20482;-79
2022/08/12 01:26:03;;;;;;;3.50;2.10;;;14.80;97.90;;;;;;5037527;28;20029;-79
2022/08/12 01:28:32;;;;;;;4.38;2.70;;;14.80;98.10;;;;;;5014686;28;20071;-79
2022/08/12 01:31:03;;;;;;;3.88;2.70;;;14.80;98.30;;;;;;5027734;28;20025;-80
2022/08/12 01:33:36;;;;;;;3.13;2.47;;;14.80;98.50;;;;;;5032681;28;20432;-79
2022/08/12 01:36:05;;;;;;;5.25;2.65;;;14.70;98.60;;;;;;5008023;28;20029;-79
2022/08/12 01:38:33;;;;;;;5.10;2.58;;;14.70;98.60;;;;;;5012215;28;20108;-79
2022/08/12 01:41:01;;;;;;;4.65;2.60;;;14.70;98.60;;;;;;5021056;28;20022;-79
2022/08/12 01:43:29;;;;;;;4.28;2.50;;;14.60;98.70;;;;;;5011774;28;20025;-79
2022/08/12 01:46:07;;;;;;;4.57;2.88;;;14.60;98.90;;;;;;5032026;28;20101;-79
2022/08/12 01:48:51;;;;;;;4.45;2.30;;;14.50;99.00;;;;;;5033930;28;20093;-80
2022/08/12 01:51:55;;;;;;;4.53;2.28;;;14.50;99.10;;;;;;5015055;28;20033;-79
2022/08/12 01:54:22;;;;;;;4.32;2.22;;;14.40;99.20;;;;;;4975297;28;20095;-80
2022/08/12 01:56:57;;;;;;;3.75;2.50;;;14.30;99.50;;;;;;5027861;28;20428;-79
2022/08/12 01:59:46;;;;;;;4.22;2.30;;;14.20;99.90;;;;;;5013044;28;20029;-79
2022/08/12 02:02:35;;;;;;;4.10;2.47;;;14.00;99.90;;;;;;5032433;28;20021;-80
2022/08/12 02:11:33;;;;;;;5.10;3.13;;;13.50;99.90;;;;;;5031979;28;20064;-80
2022/08/12 02:14:17;;;;;;;3.83;2.70;;;13.40;99.90;;;;;;5013550;28;20076;-79
2022/08/12 02:17:30;;;;;;;3.58;2.58;;;13.30;99.90;;;;;;5012551;28;20445;-79
2022/08/12 02:20:04;;;;;;;5.63;3.53;;;13.20;99.90;;;;;;5011974;28;20420;-80
2022/08/12 02:22:37;;;;;;;5.28;3.08;;;13.10;99.90;;;;;;5032145;28;20060;-79
2022/08/12 02:25:08;;;;;;;4.13;3.15;;;13.10;99.90;;;;;;5014234;28;20026;-79
2022/08/12 02:28:00;;;;;;;5.25;2.95;;;13.10;99.90;;;;;;5014245;28;20079;-80
2022/08/12 02:30:30;;;;;;;6.70;4.20;;;13.10;99.90;;;;;;5010430;28;20033;-79
2022/08/12 02:32:58;;;;;;;5.03;3.83;;;13.00;99.90;;;;;;5029126;28;20018;-79
2022/08/12 02:35:27;;;;;;;5.05;4.03;;;13.00;99.90;;;;;;5010543;28;20049;-79
2022/08/12 02:37:55;;;;;;;5.40;3.75;;;13.00;99.90;;;;;;5012800;28;20026;-80
2022/08/12 02:40:22;;;;;;;5.13;3.90;;;13.10;99.90;;;;;;5012343;28;20034;-79
2022/08/12 02:42:59;;;;;;;6.50;3.80;;;13.10;99.90;;;;;;5031492;28;20037;-79
2022/08/12 02:45:36;;;;;;;5.50;3.40;;;13.20;99.90;;;;;;5029831;28;20392;-80
2022/08/12 02:48:06;;;;;;;4.05;2.65;;;13.20;99.90;;;;;;5026546;28;20393;-79
2022/08/12 02:50:43;;;;;;;3.90;2.80;;;13.30;99.90;;;;;;5016414;28;20026;-79
2022/08/12 02:53:11;;;;;;;5.60;3.00;;;13.30;99.90;;;;;;5018027;28;20029;-79
2022/08/12 02:55:37;;;;;;;5.03;3.10;;;13.20;99.90;;;;;;5030592;28;20128;-79
2022/08/12 02:58:08;;;;;;;4.18;2.90;;;13.20;99.90;;;;;;5016648;28;20116;-79
2022/08/12 03:00:38;;;;;;;5.25;2.97;;;13.20;99.90;;;;;;5033927;28;20041;-79
2022/08/12 03:03:09;;;;;;;4.32;3.22;;;13.20;99.90;;;;;;5018374;28;20053;-79
2022/08/12 03:05:40;;;;;;;;;;;13.20;99.90;;;;;;5017050;28;20466;-79
2022/08/12 03:08:10;;;;;;;4.85;3.10;;;13.10;99.90;;;;;;5017768;28;20452;-79
2022/08/12 03:10:40;;;;;;;3.78;2.72;;;13.10;99.90;;;;;;5034100;28;20425;-79
2022/08/12 03:13:08;;;;;;;3.47;2.50;;;13.10;99.90;;;;;;5017659;28;20095;-80
2022/08/12 03:15:35;;;;;;;4.10;2.95;;;13.10;99.90;;;;;;5035531;28;20033;-79
2022/08/12 03:18:17;;;;;;;5.10;2.58;;;13.10;99.90;;;;;;5017519;28;20018;-80
2022/08/12 03:20:44;;;;;;;5.18;2.80;;;13.10;99.90;;;;;;5032158;28;20026;-79
2022/08/12 03:23:13;;;;;;;4.35;2.80;;;13.00;99.90;;;;;;5016648;28;20063;-79
2022/08/12 03:25:40;;;;;;;5.25;2.80;;;12.90;99.90;;;;;;5015520;28;20029;-79
2022/08/12 03:28:12;;;;;;;6.40;3.03;;;12.80;99.90;;;;;;5015639;28;20029;-79
2022/08/12 03:30:41;;;;;;;3.40;2.80;;;12.60;99.90;;;;;;5032400;28;20025;-79
2022/08/12 03:33:12;;;;;;;6.20;2.63;;;12.60;99.90;;;;;;5033512;28;20377;-79
2022/08/12 03:35:41;;;;;;;4.20;2.67;;;12.60;99.90;;;;;;5016543;28;20034;-79
2022/08/12 03:38:10;;;;;;;3.85;2.83;;;12.60;99.90;;;;;;5017297;28;20025;-79
2022/08/12 04:00:57;;;;;;;3.97;2.80;;;12.60;99.90;;;;;;5033025;28;20028;-79
2022/08/12 04:06:08;;;;;;;4.03;2.60;;;12.60;99.90;;;;;;5029995;28;20109;-79
2022/08/12 04:08:35;;;;;;;4.75;2.70;;;12.60;99.90;;;;;;5031728;28;20026;-79
2022/08/12 04:13:47;;;;;;;4.00;2.80;;;12.50;99.90;;;;;;5032857;28;20120;-79
2022/08/12 04:16:15;;;;;;;3.70;2.55;;;12.40;99.90;;;;;;5031961;28;20536;-79
2022/08/12 04:18:43;;;;;;;4.47;2.70;;;12.50;99.90;;;;;;5015550;28;20032;-79
2022/08/12 04:21:09;;;;;;;5.18;2.63;;;12.40;99.90;;;;;;5016251;28;20117;-79
2022/08/12 04:23:41;;;;;;;5.13;2.80;;;12.30;99.90;;;;;;5012006;28;20025;-79
2022/08/12 04:26:07;;;;;;;5.43;2.90;;;12.20;99.90;;;;;;5031658;28;20036;-79
2022/08/12 04:28:33;;;;;;;4.10;2.92;;;12.20;99.90;;;;;;5016072;28;20394;-79
2022/08/12 04:31:00;;;;;;;5.63;3.08;;;12.20;99.90;;;;;;5015166;28;20033;-78
2022/08/12 04:33:26;;;;;;;4.50;3.05;;;12.20;99.90;;;;;;5035281;28;20026;-78
2022/08/12 04:35:53;;;;;;;3.92;2.70;;;12.20;99.90;;;;;;5013654;28;20096;-78
2022/08/12 04:38:19;;;;;;;3.50;2.55;;;12.10;99.90;;;;;;5014918;28;20462;-78
2022/08/12 04:40:45;;;;;;;4.80;2.92;;;12.10;99.90;;;;;;5031517;28;20029;-79
2022/08/12 04:43:11;;;;;;;4.13;2.80;;;12.10;99.90;;;;;;5015741;28;20037;-78
2022/08/12 04:45:39;;;;;;;4.28;3.10;;;12.10;99.90;;;;;;5015365;28;20509;-78
2022/08/12 04:48:06;;;;;;;7.47;3.13;;;12.00;99.90;;;;;;5032102;28;20448;-78
2022/08/12 04:50:32;;;;;;;4.80;3.40;;;12.00;99.90;;;;;;5015221;28;20445;-78
2022/08/12 04:52:59;;;;;;;4.43;2.88;;;12.00;99.90;;;;;;5016083;28;20037;-78
2022/08/12 04:55:27;;;;;;;5.00;3.45;;;12.00;99.90;;;;;;5013837;28;20049;-78
2022/08/12 04:57:53;;;;;;;4.97;3.38;;;12.10;99.90;;;;;;5014940;28;20079;-78
2022/08/12 05:00:19;;;;;;;5.00;3.47;;;12.10;99.90;;;;;;5014959;28;20540;-78
2022/08/12 05:02:45;;;;;;;5.28;3.47;;;12.10;99.90;;;;;;5033117;28;20048;-78
2022/08/12 05:05:24;;;;;;;3.78;2.97;;;12.10;99.90;;;;;;5014289;28;20475;-78
2022/08/12 05:07:51;;;;;;;6.18;3.22;;;12.10;99.90;;;;;;5030949;28;20036;-78
2022/08/12 05:10:18;;;;;;;4.88;3.63;;;12.20;99.90;;;;;;5015050;28;20030;-78
2022/08/12 05:13:08;;;;;;;6.07;3.45;;;12.20;99.90;;;;;;5031097;28;20061;-78
2022/08/12 05:15:38;;;;;;;6.20;3.63;;;12.20;99.90;;;;;;5014447;28;20397;-78
2022/08/12 05:18:04;;;;;;;4.90;3.72;;;12.10;99.90;;;;;;5014169;28;20075;-78
2022/08/12 05:20:30;;;;;;;5.20;4.05;;;12.10;99.90;;;;;;5013657;28;20033;-78
2022/08/12 05:23:11;;;;;;;5.80;4.30;;;12.20;99.90;;;;;;5033487;28;20049;-79
2022/08/12 05:25:37;;;;;;;5.65;4.05;;;12.10;99.90;;;;;;5014740;28;20594;-78
2022/08/12 05:28:06;;;;;;;5.65;3.80;;;12.10;99.90;;;;;;5014074;28;20112;-78
2022/08/12 05:30:33;;;;;;;5.85;3.28;;;12.10;99.90;;;;;;5030698;28;20132;-78
2022/08/12 05:33:04;;;;;;;5.07;3.97;;;12.10;99.90;;;;;;5013364;28;20071;-78
2022/08/12 05:35:31;;;;;;;13.45;4.47;;;12.20;99.90;;;;;;5010974;28;20021;-78
2022/08/12 05:40:41;;;;;;;5.72;4.25;;;12.20;99.90;;;;;;5032222;28;20036;-78
2022/08/12 05:43:07;;;;;;;5.28;3.78;;;12.30;99.90;;;;;;5031269;28;20051;-78
2022/08/12 05:45:33;;;;;;;5.97;3.97;;;12.30;99.90;;;;;;5031894;28;20477;-78
2022/08/12 05:47:58;;;;;;;5.78;4.28;;;12.30;99.90;;;;;;5012809;28;20087;-78
2022/08/12 05:50:25;;;;;;;6.80;4.72;;;12.30;99.90;;;;;;5030996;28;20507;-78
2022/08/12 05:52:51;;;;;;;7.80;4.88;;;12.30;99.90;;;;;;5015074;28;20029;-78
2022/08/12 05:55:19;;;;;;;6.47;4.90;;;12.30;99.90;;;;;;5014817;28;20033;-79
2022/08/12 05:57:47;;;;;;;7.38;4.57;;;12.30;99.90;;;;;;5015048;28;20025;-78
2022/08/12 06:00:15;;;;;;;6.03;4.00;;;12.40;99.90;;;;;;5033264;28;20068;-79
2022/08/12 06:02:41;;;;;;;5.80;4.30;;;12.50;99.90;;;;;;5032648;28;20022;-79
2022/08/12 06:05:09;;;;;;;7.57;5.15;;;12.60;99.90;;;;;;5015122;28;20083;-78
2022/08/12 06:07:41;;;;;;;7.13;5.25;;;12.70;99.90;;;;;;5014541;28;20033;-79
2022/08/12 06:10:07;;;;;;;7.97;4.93;;;12.80;99.90;;;;;;5030351;28;20063;-79
2022/08/12 06:12:33;;;;;;;7.07;5.10;;;12.90;99.90;;;;;;5014037;28;20061;-79
2022/08/12 06:15:00;;;;;;;5.88;4.40;;;12.90;99.90;;;;;;5030954;28;20041;-79
2022/08/12 06:17:26;;;;;;;11.45;5.00;;;13.00;99.90;;;;;;5032454;28;20028;-79
2022/08/12 06:19:52;;;;;;;6.82;4.20;;;13.10;99.90;;;;;;5032828;28;20109;-79
2022/08/12 06:22:18;;;;;;;6.25;4.43;;;13.20;99.90;;;;;;5015129;28;20116;-79
2022/08/12 06:24:43;;;;;;;5.78;4.05;;;13.20;99.90;;;;;;5018096;28;20087;-79
2022/08/12 06:27:10;;;;;;;5.57;4.30;;;13.30;99.90;;;;;;5036244;28;20029;-79
2022/08/12 06:29:37;;;;;;;7.45;4.35;;;13.30;99.90;;;;;;5019000;28;20033;-79
2022/08/12 06:32:03;;;;;;;5.55;4.03;;;13.40;99.90;;;;;;5037350;28;20477;-79
2022/08/12 06:34:30;;;;;;;5.65;3.58;;;13.50;99.90;;;;;;5036529;28;20071;-79
2022/08/12 06:36:55;;;;;;;7.68;4.00;;;13.60;99.90;;;;;;5036026;28;20377;-79
2022/08/12 06:39:22;;;;;;;6.38;4.40;;;13.70;99.90;;;;;;5018487;28;20076;-79
2022/08/12 06:44:32;;;;;;;9.02;5.20;;;13.90;99.90;;;;;;5036376;28;20044;-79
2022/08/12 06:46:58;;;;;;;7.95;5.80;;;14.00;99.90;;;;;;5018270;28;20029;-79
2022/08/12 06:49:24;;;;;;;6.50;4.45;;;14.10;99.90;;;;;;5036230;28;20469;-79
2022/08/12 06:51:52;;;;;;;9.23;5.53;;;14.20;99.90;;;;;;5017871;28;20055;-79
2022/08/12 06:54:18;;;;;;;7.75;5.55;;;14.20;99.90;;;;;;5035749;28;20060;-79
2022/08/12 06:56:43;;;;;;;8.50;5.57;;;14.30;99.90;;;;;;5017844;28;20512;-79
2022/08/12 06:59:10;;;;;;;8.63;4.95;;;14.40;99.90;;;;;;5034259;28;20482;-79
2022/08/12 07:01:36;;;;;;;10.45;5.65;;;14.50;99.90;;;;;;5036040;28;20025;-79
2022/08/12 07:04:02;;;;;;;7.95;5.75;;;14.60;99.90;;;;;;5035264;28;20534;-79
2022/08/12 07:06:28;;;;;;;9.93;5.78;;;14.70;99.90;;;;;;5035589;28;20064;-79
2022/08/12 07:08:54;;;;;;;9.38;5.40;;;14.80;99.90;;;;;;5017893;28;20114;-79
2022/08/12 07:11:19;;;;;;;6.82;5.32;;;14.90;99.90;;;;;;5018215;28;20396;-79
2022/08/12 07:13:51;;;;;;;5.60;4.07;;;15.10;99.90;;;;;;5035155;28;20091;-79
2022/08/12 07:16:20;;;;;;;7.85;3.70;;;15.20;99.90;;;;;;5017848;28;20037;-79
2022/08/12 07:18:49;;;;;;;6.45;3.78;;;15.30;99.90;;;;;;5032722;28;20021;-78
2022/08/12 07:21:15;;;;;;;4.35;3.05;;;15.50;99.90;;;;;;5017768;28;20531;-79
2022/08/12 07:23:42;;;;;;;4.80;3.38;;;15.60;99.90;;;;;;5017447;28;20033;-79
2022/08/12 07:26:10;;;;;;;7.93;4.13;;;15.70;99.90;;;;;;5032988;28;20030;-78
2022/08/12 07:28:38;;;;;;;6.03;3.45;;;15.80;99.90;;;;;;5017006;28;20079;-79
2022/08/12 07:31:07;;;;;;;5.57;3.33;;;16.00;99.90;;;;;;5016107;28;20021;-79
2022/08/12 07:33:38;;;;;;;4.88;2.97;;;16.20;99.90;;;;;;5032908;28;20416;-79
2022/08/12 07:36:06;;;;;;;4.00;2.90;;;16.30;99.90;;;;;;5031668;28;20032;-79
2022/08/12 07:38:35;;;;;;;5.22;3.00;;;16.50;99.70;;;;;;5034048;28;20026;-79
2022/08/12 07:41:15;;;;;;;5.85;2.53;;;16.70;99.90;;;;;;5017102;28;20053;-79
2022/08/12 07:43:44;;;;;;;10.82;3.10;;;16.80;99.70;;;;;;5029639;28;20087;-79
2022/08/12 07:46:13;;;;;;;4.53;2.70;;;16.90;98.70;;;;;;5016672;28;20393;-79
2022/08/12 07:48:47;;;;;;;4.15;2.70;;;17.10;99.00;;;;;;5018013;28;20036;-76
2022/08/12 07:51:13;;;;;;;3.63;2.67;;;17.20;98.90;;;;;;5035143;28;20021;-77
2022/08/12 07:53:39;;;;;;;4.65;2.75;;;17.30;98.70;;;;;;5035121;28;20030;-78
2022/08/12 07:56:10;;;;;;;4.60;2.88;;;17.50;98.30;;;;;;5017323;28;20125;-77
2022/08/12 07:58:38;;;;;;;4.63;2.47;;;17.60;98.20;;;;;;5030114;28;20041;-77
2022/08/12 08:01:10;;;;;;;5.43;2.80;;;17.70;97.50;;;;;;5034382;28;20445;-77
2022/08/12 08:06:24;;;;;;;6.40;2.63;;;18.10;96.80;;;;;;5033884;28;20125;-78
2022/08/12 08:08:49;;;;;;;4.88;2.85;;;18.20;96.40;;;;;;5017241;28;20482;-77
2022/08/12 08:14:03;;;;;;;8.02;2.75;;;18.50;96.10;;;;;;5028899;28;20044;-77
2022/08/12 08:16:28;;;;;;;5.43;2.63;;;18.60;95.20;;;;;;5008002;28;20030;-77
2022/08/12 08:18:58;;;;;;;4.20;2.50;;;18.70;95.30;;;;;;5030920;28;20022;-77
2022/08/12 08:21:28;;;;;;;6.80;2.50;;;18.80;95.50;;;;;;5016889;28;20106;-77
2022/08/12 08:26:37;;;;;;;4.43;2.33;;;19.00;95.20;;;;;;5015141;28;20060;-77
2022/08/12 08:29:03;;;;;;;8.60;2.53;;;19.20;94.80;;;;;;5002112;28;20474;-78
2022/08/12 08:31:29;;;;;;;4.30;2.25;;;19.40;94.20;;;;;;5033709;28;20056;-77
2022/08/12 08:33:54;;;;;;;5.18;2.55;;;19.60;94.20;;;;;;5016307;28;20026;-77
2022/08/12 08:36:20;;;;;;;3.60;2.38;;;19.70;93.20;;;;;;5015938;28;20063;-77
2022/08/12 08:38:46;;;;;;;5.07;2.80;;;19.80;92.60;;;;;;5016241;28;20061;-77
2022/08/12 08:43:58;;;;;;;4.55;2.45;;;20.10;92.80;;;;;;5019622;28;20029;-77
2022/08/12 08:46:24;;;;;;;8.13;2.47;;;20.30;91.50;;;;;;5033546;28;20021;-77
2022/08/12 08:48:50;;;;;;;3.72;2.40;;;20.40;92.10;;;;;;5029078;28;20533;-77
2022/08/12 08:51:16;;;;;;;8.43;2.72;;;20.60;92.10;;;;;;5026826;28;20104;-77
2022/08/12 08:53:43;;;;;;;4.88;2.35;;;20.70;89.50;;;;;;5012798;28;20022;-78
2022/08/12 08:56:12;;;;;;;4.63;2.53;;;20.80;90.20;;;;;;5028468;28;20018;-78
2022/08/12 08:58:38;;;;;;;6.30;2.53;;;21.00;90.30;;;;;;5013688;28;20033;-77
2022/08/12 09:01:04;;;;;;;4.90;2.00;;;21.10;88.70;;;;;;5016394;28;20021;-77
2022/08/12 09:03:30;;;;;;;3.00;1.85;;;21.30;85.30;;;;;;5016382;28;20018;-77
2022/08/12 09:05:56;;;;;;;5.43;1.80;;;21.40;85.00;;;;;;5016059;28;20022;-77
2022/08/12 09:08:21;;;;;;;4.07;1.80;;;21.60;80.80;;;;;;5015787;28;20029;-78
2022/08/12 09:10:48;;;;;;;2.92;1.75;;;21.70;81.40;;;;;;5033500;28;20025;-77
2022/08/12 09:13:33;;;;;;;2.70;1.80;;;21.80;78.90;;;;;;5033368;28;20436;-77
2022/08/12 09:16:00;;;;;;;5.80;2.40;;;21.80;79.50;;;;;;5002444;28;20033;-77
2022/08/12 09:18:26;;;;;;;5.82;1.98;;;21.90;79.00;;;;;;5011732;28;20026;-78
2022/08/12 09:20:52;;;;;;;4.57;2.05;;;21.90;77.00;;;;;;5014958;28;20048;-78
2022/08/12 09:23:18;;;;;;;4.75;1.83;;;21.90;77.80;;;;;;5023757;28;20465;-77
2022/08/12 09:25:45;;;;;;;5.15;1.80;;;22.10;78.10;;;;;;5014621;28;20038;-81
2022/08/12 09:28:11;;;;;;;13.77;2.95;;;22.20;74.20;;;;;;5030734;28;20112;-77
2022/08/12 09:30:38;;;;;;;5.20;1.75;;;22.20;77.60;;;;;;5029076;28;20021;-77
2022/08/12 09:33:05;;;;;;;9.65;2.17;;;22.30;74.60;;;;;;5032901;28;20017;-77
2022/08/12 09:35:39;;;;;;;4.50;1.80;;;22.50;71.90;;;;;;5015731;28;20025;-77
2022/08/12 09:38:06;;;;;;;4.57;1.90;;;22.50;73.00;;;;;;5033454;28;20095;-77
2022/08/12 09:40:32;;;;;;;3.70;1.63;;;22.60;72.90;;;;;;5033173;28;20025;-77
2022/08/12 09:45:48;;;;;;;4.25;1.80;;;22.70;71.60;;;;;;5019059;28;20088;-79
2022/08/12 09:48:18;;;;;;;4.15;1.80;;;22.90;72.90;;;;;;5015249;28;20044;-78
2022/08/12 09:50:46;;;;;;;2.78;1.65;;;23.00;73.20;;;;;;5014187;28;20087;-80
2022/08/12 09:53:23;;;;;;;3.80;1.60;;;23.20;69.90;;;;;;5014136;28;20079;-78
2022/08/12 09:55:58;;;;;;;4.60;1.65;;;23.30;69.20;;;;;;5014046;28;20060;-79
2022/08/12 09:58:28;;;;;;;2.33;1.48;;;23.40;66.70;;;;;;5036078;28;20500;-80
2022/08/12 10:01:04;;;;;;;2.73;1.57;;;23.40;66.40;;;;;;5029364;28;20021;-78
2022/08/12 10:03:32;;;;;;;6.30;1.58;;;23.50;67.10;;;;;;5019884;28;20030;-77
2022/08/12 10:06:00;;;;;;;5.00;1.35;;;23.50;64.20;;;;;;5019503;28;20393;-78
2022/08/12 10:08:29;;;;;;;3.90;1.70;;;23.60;62.30;;;;;;5037347;28;20048;-78
2022/08/12 10:13:40;;;;;;;2.38;1.42;;;23.70;65.00;;;;;;5023498;28;20531;-78
2022/08/12 10:16:27;;;;;;;3.55;1.67;;;23.80;63.10;;;;;;5037200;28;20022;-78
2022/08/12 10:18:56;;;;;;;5.82;1.65;;;23.90;63.40;;;;;;5037308;28;20533;-78
2022/08/12 10:21:35;;;;;;;2.67;1.60;;;23.90;62.60;;;;;;5019292;28;20048;-78
2022/08/12 10:24:07;;;;;;;7.35;1.80;;;23.80;59.90;;;;;;5019637;28;20028;-78
2022/08/12 10:32:11;;;;;;;3.47;1.80;;;24.10;61.90;;;;;;5037348;28;20445;-78
2022/08/12 10:34:38;;;;;;;;;;;24.00;61.60;;;;;;5019596;28;20147;-78
2022/08/12 10:37:05;;;;;;;4.00;1.90;;;24.00;60.20;;;;;;5036853;28;19920;-77
2022/08/12 10:39:34;;;;;;;;;;;24.00;62.10;;;;;;5037465;28;20096;-78
2022/08/12 10:44:47;;;;;;;;;;;24.00;61.00;;;;;;5030116;28;19928;-78
2022/08/12 10:47:15;;;;;;;;;;;23.90;63.70;;;;;;5036209;28;19905;-78
2022/08/12 10:49:41;;;;;;;;;;;24.00;60.50;;;;;;5037652;28;19912;-78
2022/08/12 10:52:07;;;;;;;;;;;24.00;60.00;;;;;;5037262;28;19976;-78
2022/08/12 10:54:33;;;;;;;;;;;24.10;62.80;;;;;;5019303;28;20364;-78
2022/08/12 10:56:59;;;;;;;;;;;24.20;61.40;;;;;;5036661;28;20256;-78
2022/08/12 10:59:28;;;;;;;;;;;24.30;62.00;;;;;;5018984;28;19905;-78
2022/08/12 11:01:55;;;;;;;;;;;24.40;62.90;;;;;;5019451;28;19912;-77
2022/08/12 11:04:21;;;;;;;;;;;24.40;63.10;;;;;;5036901;28;19951;-77
2022/08/12 11:06:46;;;;;;;;;;;24.60;59.90;;;;;;5019437;28;19988;-78
2022/08/12 11:09:16;;;;;;;;;;;24.40;59.50;;;;;;5017671;28;19940;-78
2022/08/12 11:11:42;;;;;;;;;;;24.40;60.00;;;;;;5031681;28;19905;-78
2022/08/12 11:14:08;;;;;;;;;;;24.40;60.60;;;;;;5018751;28;19920;-78
2022/08/12 11:16:33;;;;;;;;;;;24.50;61.70;;;;;;5018984;28;20285;-78
2022/08/12 11:18:59;;;;;;;;;;;24.60;61.90;;;;;;5036809;28;19905;-78
2022/08/12 11:21:24;;;;;;;;;;;24.70;59.80;;;;;;5018091;28;19909;-79
2022/08/12 11:23:50;;;;;;;;;;;24.80;60.00;;;;;;5018812;28;19909;-79
2022/08/12 11:26:16;;;;;;;;;;;24.80;58.40;;;;;;5012348;28;19909;-78
2022/08/12 11:28:41;;;;;;;;;;;24.90;58.90;;;;;;5001105;28;19910;-78
2022/08/12 11:31:07;;;;;;;;;;;24.80;58.80;;;;;;5001614;28;20443;-78
2022/08/12 11:33:37;;;;;;;;;;;24.80;61.40;;;;;;5017920;28;20361;-79
2022/08/12 11:36:04;;;;;;;;;;;24.80;58.80;;;;;;5017837;28;19914;-79
2022/08/12 11:38:29;;;;;;;;;;;24.70;57.40;;;;;;5019100;28;20399;-78
2022/08/12 11:40:55;;;;;;;;;;;24.80;59.90;;;;;;5017864;28;19917;-78
2022/08/12 11:43:20;;;;;;;;;;;24.90;60.70;;;;;;5031004;28;19912;-78
2022/08/12 11:45:46;;;;;;;;;;;25.00;58.60;;;;;;5017280;28;19905;-77
2022/08/12 11:48:12;;;;;;;;;;;25.00;58.80;;;;;;5036038;28;20373;-78
2022/08/12 11:50:38;;;;;;;;;;;25.10;60.70;;;;;;5034951;28;19912;-78
2022/08/12 11:53:03;;;;;;;;;;;25.20;58.80;;;;;;5018573;28;20353;-78
2022/08/12 11:55:29;;;;;;;;;;;25.30;59.50;;;;;;5017044;28;19909;-78
2022/08/12 11:57:55;;;;;;;;;;;25.20;57.20;;;;;;5035522;28;20358;-78
2022/08/12 12:00:21;;;;;;;;;;;25.00;58.00;;;;;;5017720;28;19912;-78
2022/08/12 12:02:46;;;;;;;;;;;24.90;57.90;;;;;;5035987;28;20345;-78
2022/08/12 12:05:15;;;;;;;;;;;24.90;57.90;;;;;;5034210;28;19912;-79
2022/08/12 12:07:41;;;;;;;;;;;25.10;58.20;;;;;;5017619;28;19913;-79
2022/08/12 12:10:07;;;;;;;;;;;25.00;58.00;;;;;;5018334;28;19905;-79
2022/08/12 12:12:33;;;;;;;;;;;24.90;57.30;;;;;;5018570;28;19905;-81
2022/08/12 12:14:59;;;;;;;;;;;24.90;59.20;;;;;;5027297;28;20315;-78
2022/08/12 12:17:25;;;;;;;;;;;25.00;58.80;;;;;;5036913;28;20355;-79
2022/08/12 12:19:51;;;;;;;;;;;25.10;60.50;;;;;;5018585;28;19905;-78
2022/08/12 12:22:17;;;;;;;;;;;25.30;58.10;;;;;;5033836;28;19905;-79
2022/08/12 12:24:46;;;;;;;;;;;25.50;58.00;;;;;;5035333;28;19958;-78
2022/08/12 12:27:12;;;;;;;;;;;25.60;58.60;;;;;;5031331;28;20459;-79
2022/08/12 12:29:37;;;;;;;;;;;25.60;57.80;;;;;;5017797;28;19908;-79
2022/08/12 12:32:03;;;;;;;;;;;25.80;57.70;;;;;;5027536;28;19987;-78
2022/08/12 12:34:29;;;;;;;;;;;25.80;56.40;;;;;;5017698;28;19956;-78
2022/08/12 12:36:54;;;;;;;;;;;25.90;57.40;;;;;;5017784;28;19955;-78
2022/08/12 12:39:20;;;;;;;;;;;25.90;57.90;;;;;;5017340;28;19909;-79
2022/08/12 12:41:45;;;;;;;;;;;26.00;57.10;;;;;;5035048;28;19912;-78
2022/08/12 12:44:11;;;;;;;;;;;26.00;56.70;;;;;;5017051;28;20373;-78
2022/08/12 12:46:37;;;;;;;;;;;25.80;55.20;;;;;;5016776;28;19905;-79
2022/08/12 12:49:02;;;;;;;;;;;25.30;55.80;;;;;;5035458;28;19905;-79
2022/08/12 12:51:28;;;;;;;;;;;25.30;55.50;;;;;;5000806;28;19935;-79
2022/08/12 12:53:54;;;;;;;;;;;25.30;56.10;;;;;;5001937;28;20396;-78
2022/08/12 12:56:21;;;;;;;;;;;25.40;55.80;;;;;;5016847;28;19952;-79
2022/08/12 12:58:48;;;;;;;;;;;25.40;55.60;;;;;;5017062;28;19906;-78
2022/08/12 13:01:18;;;;;;;;;;;25.30;54.00;;;;;;5034849;28;19905;-78
2022/08/12 13:03:44;;;;;;;;;;;24.90;54.20;;;;;;5008465;28;19905;-78
2022/08/12 13:06:11;;;;;;;;;;;24.40;54.40;;;;;;5017282;28;19905;-78
2022/08/12 13:08:37;;;;;;;;;;;24.00;56.10;;;;;;5019556;28;20353;-79
2022/08/12 13:11:04;;;;;;;;;;;24.00;56.90;;;;;;5016807;28;19905;-78
2022/08/12 13:13:31;;;;;;;;;;;23.90;55.10;;;;;;5016565;28;19912;-79
2022/08/12 13:16:00;;;;;;;;;;;24.10;55.20;;;;;;5016166;28;19948;-78
2022/08/12 13:18:35;;;;;;;;;;;24.10;54.70;;;;;;5034227;28;19905;-79
2022/08/12 13:21:09;;;;;;;;;;;24.10;55.70;;;;;;5033655;28;19916;-78
2022/08/12 13:23:36;;;;;;;;;;;24.00;55.00;;;;;;5034343;28;20320;-78
2022/08/12 13:26:02;;;;;;;;;;;24.00;56.50;;;;;;5028671;28;20008;-78
2022/08/12 13:28:29;;;;;;;;;;;24.00;55.70;;;;;;4996809;28;19909;-79
2022/08/12 13:30:58;;;;;;;;;;;24.20;54.70;;;;;;5015626;28;20312;-78
2022/08/12 13:33:25;;;;;;;;;;;24.40;54.70;;;;;;5015875;28;20273;-77
2022/08/12 13:35:51;;;;;;;;;;;24.40;53.10;;;;;;5033587;28;19975;-77
2022/08/12 13:38:17;;;;;;;;;;;24.50;53.70;;;;;;5016675;28;19912;-78
2022/08/12 13:40:43;;;;;;;;;;;24.50;54.10;;;;;;5034281;28;20361;-77
2022/08/12 13:43:14;;;;;;;;;;;24.40;53.00;;;;;;5016632;28;19912;-78
2022/08/12 13:45:40;;;;;;;;;;;24.10;53.30;;;;;;5034290;28;19905;-77
2022/08/12 13:48:06;;;;;;;;;;;23.90;54.70;;;;;;5034571;28;19928;-79
2022/08/12 13:50:39;;;;;;;;;;;23.80;53.20;;;;;;5015639;28;20300;-78
2022/08/12 13:53:07;;;;;;;;;;;23.90;54.50;;;;;;5016721;28;19912;-78
2022/08/12 13:55:32;;;;;;;;;;;24.00;53.80;;;;;;5016336;28;20273;-78
2022/08/12 13:58:00;;;;;;;;;;;24.20;52.80;;;;;;5033916;28;19905;-78
2022/08/12 14:00:26;;;;;;;;;;;24.40;54.20;;;;;;5016348;28;20407;-78
2022/08/12 14:02:52;;;;;;;;;;;24.60;54.70;;;;;;5034051;28;19905;-78
2022/08/12 14:05:18;;;;;;;;;;;24.80;51.80;;;;;;5016348;28;19948;-78
2022/08/12 14:08:00;;;;;;;;;;;24.90;52.60;;;;;;5034155;28;19951;-78
2022/08/12 14:10:35;;;;;;;;;;;25.00;53.70;;;;;;5016343;28;19905;-78
2022/08/12 14:13:15;;;;;;;;;;;25.20;53.60;;;;;;5033786;28;20361;-78
2022/08/12 14:15:45;;;;;;;;;;;25.20;51.60;;;;;;5016106;28;20276;-78
2022/08/12 14:18:11;;;;;;;;;;;25.30;51.40;;;;;;5014830;28;19980;-78
2022/08/12 14:20:37;;;;;;;;;;;25.40;52.10;;;;;;5011198;28;20438;-78
2022/08/12 14:23:03;;;;;;;;;;;25.40;52.20;;;;;;5032183;28;19988;-78
2022/08/12 14:25:29;;;;;;;;;;;25.50;53.30;;;;;;5014635;28;19912;-78
2022/08/12 14:28:02;;;;;;;;;;;25.60;52.50;;;;;;5016162;28;20008;-78
2022/08/12 14:30:29;;;;;;;;;;;25.70;50.90;;;;;;5034385;28;19931;-78
2022/08/12 14:32:54;;;;;;;;;;;25.80;50.60;;;;;;5015830;28;19931;-78
2022/08/12 14:35:20;;;;;;;;;;;25.80;49.90;;;;;;5034253;28;20316;-79
2022/08/12 14:37:46;;;;;;;;;;;26.00;50.70;;;;;;5016595;28;20328;-79
2022/08/12 14:40:12;;;;;;;;;;;26.10;50.60;;;;;;5016374;28;19906;-78
2022/08/12 14:42:38;;;;;;;;;;;26.10;51.10;;;;;;5033444;28;19917;-78
2022/08/12 14:45:04;;;;;;;;;;;26.00;48.70;;;;;;5035821;28;20004;-78
2022/08/12 14:47:30;;;;;;;;;;;25.50;50.60;;;;;;5019424;28;19905;-78
2022/08/12 14:49:55;;;;;;;;;;;25.10;50.70;;;;;;5018138;28;19948;-78
2022/08/12 14:52:23;;;;;;;;;;;25.00;51.60;;;;;;5019376;28;19905;-78
2022/08/12 14:54:48;;;;;;;;;;;25.00;52.50;;;;;;5036892;28;19920;-78
2022/08/12 14:57:15;;;;;;;;;;;25.00;52.50;;;;;;5035996;28;19933;-78
2022/08/12 15:02:28;;;;;;;;;;;24.70;51.80;;;;;;5037046;28;20281;-78
2022/08/12 15:05:01;;;;;;;;;;;24.60;52.70;;;;;;5030633;28;19905;-78
2022/08/12 15:07:27;;;;;;;;;;;24.60;53.30;;;;;;5018555;28;19937;-78
2022/08/12 15:09:53;;;;;;;;;;;24.50;53.00;;;;;;5033398;28;19940;-78
2022/08/12 15:12:19;;;;;;;;;;;24.50;53.90;;;;;;5035106;28;19912;-79
2022/08/12 15:14:44;;;;;;;;;;;24.40;54.00;;;;;;5036793;28;19909;-78
2022/08/12 15:17:10;;;;;;;;;;;24.30;53.10;;;;;;5034964;28;19911;-79
2022/08/12 15:19:35;;;;;;;;;;;24.30;52.00;;;;;;5017872;28;19995;-78
2022/08/12 15:22:01;;;;;;;;;;;24.40;50.90;;;;;;5036403;28;20399;-78